ARG1009 SACO-LPMA
Flight info
| Callsign | ARG1009 |
|---|---|
| Flight time | N/A |
| Altitude | 35000 |
| Route | TREJO1C TREJO UL531 SIS UZ124 ARPAS UM529 VAS UM403 ILNIM UL795 DAKEM UM532 KUKOL UZ5 PULUV UZ51 ENRAL/N0461F370 UZ51 SATGA UZ84 IRUMA UZ18 ARTIG UN866 DEKON/N0458F380 UN866 AMDOL/N0452F390 UN866 TENPA N866 GOMER/N0454F400 N981 BIMBO Q206 BURAG DCT EKNOT |
| Aircraft | A343/H-SDE2E3FGHIJ4J5M1RWXY/LB1D1 |
Departure
| Time | 2026-05-06 16:36 |
|---|---|
| Airport | Ingeniero Aeronáutico Ambrosio L.V. Taravella International Airport (SACO) |
Arrival
| Time | N/A |
|---|---|
| Airport | Cristiano Ronaldo International Airport (LPMA) |
| Time | Latitude | Longitude | Altitude | Speed | Heading |
|---|---|---|---|---|---|
| 2026-05-06 16:00 | -31.31486 | -64.21172 | 1617 ft | 0 kts | 262° |
| 2026-05-06 16:29 | -31.31487 | -64.21180 | 1617 ft | 4 kts | 262° |
| 2026-05-06 16:29 | -31.31488 | -64.21188 | 1625 ft | 3 kts | 261° |
| 2026-05-06 16:29 | -31.31485 | -64.21165 | 1617 ft | 3 kts | 260° |
| 2026-05-06 16:30 | -31.31481 | -64.21141 | 1618 ft | 3 kts | 259° |
| 2026-05-06 16:30 | -31.31480 | -64.21134 | 1619 ft | 3 kts | 259° |
| 2026-05-06 16:30 | -31.31471 | -64.21096 | 1624 ft | 3 kts | 238° |
| 2026-05-06 16:30 | -31.31460 | -64.21081 | 1621 ft | 3 kts | 194° |
| 2026-05-06 16:31 | -31.31458 | -64.21080 | 1625 ft | 1 kts | 181° |
| 2026-05-06 16:33 | -31.31462 | -64.21080 | 1626 ft | 3 kts | 181° |
| 2026-05-06 16:33 | -31.31486 | -64.21080 | 1621 ft | 7 kts | 181° |
| 2026-05-06 16:34 | -31.31652 | -64.21058 | 1621 ft | 18 kts | 169° |
| 2026-05-06 16:34 | -31.31794 | -64.21034 | 1621 ft | 23 kts | 175° |
| 2026-05-06 16:34 | -31.31976 | -64.21026 | 1622 ft | 28 kts | 180° |
| 2026-05-06 16:34 | -31.32164 | -64.21023 | 1621 ft | 27 kts | 179° |
| 2026-05-06 16:35 | -31.32347 | -64.21020 | 1621 ft | 25 kts | 175° |
| 2026-05-06 16:35 | -31.32438 | -64.20899 | 1623 ft | 20 kts | 84° |
| 2026-05-06 16:35 | -31.32281 | -64.20817 | 1621 ft | 36 kts | 0° |
| 2026-05-06 16:35 | -31.32026 | -64.20819 | 1624 ft | 75 kts | 359° |
| 2026-05-06 16:36 | -31.31323 | -64.20828 | 1624 ft | 126 kts | 360° |
| 2026-05-06 16:36 | -31.30334 | -64.20859 | 1854 ft | 144 kts | 2° |
| 2026-05-06 16:36 | -31.29278 | -64.20726 | 2009 ft | 171 kts | 27° |
| 2026-05-06 16:36 | -31.28488 | -64.19591 | 2310 ft | 192 kts | 67° |
| 2026-05-06 16:37 | -31.27949 | -64.18162 | 2823 ft | 196 kts | 51° |
| 2026-05-06 16:37 | -31.27099 | -64.16848 | 3111 ft | 208 kts | 49° |
| 2026-05-06 16:37 | -31.26217 | -64.15407 | 3323 ft | 229 kts | 51° |
| 2026-05-06 16:37 | -31.25320 | -64.13766 | 3586 ft | 249 kts | 54° |
| 2026-05-06 16:38 | -31.24449 | -64.11961 | 3993 ft | 262 kts | 63° |
| 2026-05-06 16:38 | -31.24108 | -64.09827 | 4512 ft | 272 kts | 84° |
| 2026-05-06 16:38 | -31.24080 | -64.07621 | 5046 ft | 279 kts | 87° |
| 2026-05-06 16:38 | -31.24089 | -64.05302 | 5412 ft | 290 kts | 88° |
| 2026-05-06 16:39 | -31.23825 | -64.02957 | 5793 ft | 293 kts | 64° |
| 2026-05-06 16:39 | -31.22781 | -64.00932 | 6263 ft | 292 kts | 49° |
| 2026-05-06 16:39 | -31.21514 | -63.99059 | 6747 ft | 295 kts | 47° |
| 2026-05-06 16:39 | -31.20225 | -63.97172 | 7221 ft | 300 kts | 46° |
| 2026-05-06 16:40 | -31.18929 | -63.95239 | 7716 ft | 304 kts | 47° |
| 2026-05-06 16:40 | -31.17625 | -63.93276 | 8223 ft | 307 kts | 46° |
| 2026-05-06 16:40 | -31.16310 | -63.91293 | 8734 ft | 310 kts | 46° |
| 2026-05-06 16:40 | -31.14980 | -63.89280 | 9221 ft | 315 kts | 46° |
| 2026-05-06 16:41 | -31.13648 | -63.87262 | 9720 ft | 319 kts | 46° |
| 2026-05-06 16:41 | -31.12286 | -63.85196 | 10190 ft | 323 kts | 46° |
| 2026-05-06 16:41 | -31.10887 | -63.83080 | 10443 ft | 336 kts | 46° |
| 2026-05-06 16:41 | -31.09430 | -63.80885 | 10672 ft | 349 kts | 46° |
| 2026-05-06 16:42 | -31.07901 | -63.78618 | 10868 ft | 362 kts | 46° |
| 2026-05-06 16:42 | -31.06314 | -63.76269 | 11071 ft | 374 kts | 46° |
| 2026-05-06 16:42 | -31.04678 | -63.73844 | 11290 ft | 384 kts | 46° |
| 2026-05-06 16:42 | -31.03015 | -63.71375 | 11600 ft | 391 kts | 47° |
| 2026-05-06 16:43 | -31.01334 | -63.68877 | 12051 ft | 392 kts | 47° |
| 2026-05-06 16:43 | -30.99648 | -63.66374 | 12532 ft | 393 kts | 47° |
| 2026-05-06 16:43 | -30.97960 | -63.63871 | 13054 ft | 393 kts | 47° |
| 2026-05-06 16:43 | -30.96267 | -63.61363 | 13539 ft | 394 kts | 47° |
| 2026-05-06 16:44 | -30.94569 | -63.58851 | 13981 ft | 395 kts | 47° |
| 2026-05-06 16:44 | -30.92861 | -63.56327 | 14356 ft | 398 kts | 47° |
| 2026-05-06 16:44 | -30.91141 | -63.53788 | 14740 ft | 401 kts | 47° |
| 2026-05-06 16:44 | -30.89405 | -63.51226 | 15135 ft | 404 kts | 47° |
| 2026-05-06 16:45 | -30.87653 | -63.48641 | 15538 ft | 407 kts | 47° |
| 2026-05-06 16:45 | -30.85889 | -63.46041 | 15953 ft | 410 kts | 47° |
| 2026-05-06 16:45 | -30.84138 | -63.43462 | 16369 ft | 413 kts | 47° |
| 2026-05-06 16:45 | -30.82363 | -63.40844 | 16928 ft | 411 kts | 47° |
| 2026-05-06 16:46 | -30.80600 | -63.38233 | 17497 ft | 412 kts | 47° |
| 2026-05-06 16:46 | -30.78814 | -63.35612 | 17875 ft | 415 kts | 47° |
| 2026-05-06 16:46 | -30.77002 | -63.32957 | 18203 ft | 421 kts | 47° |
| 2026-05-06 16:46 | -30.75220 | -63.30238 | 18565 ft | 424 kts | 49° |
| 2026-05-06 16:47 | -30.73480 | -63.27460 | 18955 ft | 427 kts | 50° |
| 2026-05-06 16:47 | -30.71745 | -63.24639 | 19347 ft | 430 kts | 50° |
| 2026-05-06 16:47 | -30.69997 | -63.21796 | 19742 ft | 432 kts | 50° |
| 2026-05-06 16:47 | -30.68242 | -63.18957 | 20106 ft | 434 kts | 50° |
| 2026-05-06 16:48 | -30.66468 | -63.16107 | 20492 ft | 437 kts | 49° |
| 2026-05-06 16:48 | -30.64676 | -63.13246 | 20855 ft | 439 kts | 49° |
| 2026-05-06 16:48 | -30.62870 | -63.10372 | 21221 ft | 441 kts | 49° |
| 2026-05-06 16:48 | -30.61053 | -63.07489 | 21579 ft | 444 kts | 49° |
| 2026-05-06 16:49 | -30.59225 | -63.04592 | 21920 ft | 446 kts | 49° |
| 2026-05-06 16:49 | -30.57380 | -63.01669 | 22274 ft | 449 kts | 49° |
| 2026-05-06 16:49 | -30.55527 | -62.98734 | 22620 ft | 452 kts | 49° |
| 2026-05-06 16:49 | -30.53686 | -62.95821 | 22944 ft | 454 kts | 49° |
| 2026-05-06 16:50 | -30.51809 | -62.92853 | 23294 ft | 457 kts | 49° |
| 2026-05-06 16:50 | -30.49922 | -62.89870 | 23581 ft | 460 kts | 49° |
| 2026-05-06 16:50 | -30.48024 | -62.86872 | 23860 ft | 462 kts | 49° |
| 2026-05-06 16:50 | -30.46115 | -62.83859 | 24137 ft | 465 kts | 48° |
| 2026-05-06 16:51 | -30.44198 | -62.80835 | 24381 ft | 468 kts | 48° |
| 2026-05-06 16:51 | -30.42268 | -62.77793 | 24629 ft | 471 kts | 48° |
| 2026-05-06 16:51 | -30.40321 | -62.74728 | 24899 ft | 473 kts | 48° |
| 2026-05-06 16:51 | -30.38366 | -62.71651 | 25172 ft | 475 kts | 48° |
| 2026-05-06 16:52 | -30.36401 | -62.68562 | 25424 ft | 477 kts | 48° |
| 2026-05-06 16:52 | -30.34425 | -62.65461 | 25674 ft | 480 kts | 47° |
| 2026-05-06 16:52 | -30.32428 | -62.62339 | 25935 ft | 482 kts | 47° |
| 2026-05-06 16:52 | -30.30428 | -62.59220 | 26193 ft | 484 kts | 47° |
| 2026-05-06 16:53 | -30.28414 | -62.56084 | 26436 ft | 486 kts | 47° |
| 2026-05-06 16:53 | -30.26396 | -62.52940 | 26686 ft | 488 kts | 47° |
| 2026-05-06 16:53 | -30.24388 | -62.49816 | 26899 ft | 491 kts | 47° |
| 2026-05-06 16:53 | -30.22323 | -62.46604 | 27137 ft | 493 kts | 47° |
| 2026-05-06 16:54 | -30.20297 | -62.43454 | 27362 ft | 495 kts | 47° |
| 2026-05-06 16:54 | -30.18242 | -62.40262 | 27591 ft | 497 kts | 47° |
| 2026-05-06 16:54 | -30.16163 | -62.37035 | 27810 ft | 499 kts | 47° |
| 2026-05-06 16:54 | -30.14086 | -62.33813 | 28032 ft | 502 kts | 46° |
| 2026-05-06 16:55 | -30.11993 | -62.30569 | 28242 ft | 504 kts | 46° |
| 2026-05-06 16:55 | -30.09897 | -62.27323 | 28462 ft | 506 kts | 46° |
| 2026-05-06 16:55 | -30.07788 | -62.24060 | 28673 ft | 508 kts | 46° |
| 2026-05-06 16:55 | -30.05673 | -62.20789 | 28831 ft | 510 kts | 46° |
| 2026-05-06 16:56 | -30.03537 | -62.17493 | 28958 ft | 514 kts | 46° |
| 2026-05-06 16:56 | -30.01392 | -62.14183 | 29163 ft | 516 kts | 46° |
| 2026-05-06 16:56 | -29.99241 | -62.10864 | 29321 ft | 518 kts | 46° |
| 2026-05-06 16:56 | -29.97078 | -62.07532 | 29489 ft | 521 kts | 46° |
| 2026-05-06 16:57 | -29.94907 | -62.04188 | 29683 ft | 522 kts | 45° |
| 2026-05-06 16:57 | -29.92721 | -62.00824 | 29868 ft | 524 kts | 45° |
| 2026-05-06 16:57 | -29.90528 | -61.97451 | 30095 ft | 524 kts | 45° |
| 2026-05-06 16:57 | -29.88336 | -61.94097 | 30281 ft | 523 kts | 44° |
| 2026-05-06 16:58 | -29.85974 | -61.90926 | 30501 ft | 519 kts | 39° |
| 2026-05-06 16:58 | -29.83548 | -61.87853 | 30651 ft | 519 kts | 38° |
| 2026-05-06 16:58 | -29.81154 | -61.84883 | 30870 ft | 519 kts | 38° |
| 2026-05-06 16:58 | -29.78684 | -61.81850 | 31069 ft | 519 kts | 38° |
| 2026-05-06 16:59 | -29.76208 | -61.78825 | 31272 ft | 519 kts | 38° |
| 2026-05-06 16:59 | -29.73733 | -61.75803 | 31472 ft | 519 kts | 37° |
| 2026-05-06 16:59 | -29.71254 | -61.72775 | 31652 ft | 519 kts | 37° |
| 2026-05-06 16:59 | -29.68782 | -61.69753 | 31841 ft | 520 kts | 37° |
| 2026-05-06 17:00 | -29.66301 | -61.66719 | 32033 ft | 520 kts | 37° |
| 2026-05-06 17:00 | -29.63824 | -61.63691 | 32206 ft | 520 kts | 37° |
| 2026-05-06 17:00 | -29.61354 | -61.60670 | 32527 ft | 518 kts | 37° |
| 2026-05-06 17:00 | -29.58900 | -61.57667 | 32958 ft | 515 kts | 37° |
| 2026-05-06 17:01 | -29.56444 | -61.54668 | 33282 ft | 515 kts | 37° |
| 2026-05-06 17:01 | -29.53991 | -61.51678 | 33570 ft | 515 kts | 37° |
| 2026-05-06 17:01 | -29.51529 | -61.48680 | 33837 ft | 515 kts | 37° |
| 2026-05-06 17:01 | -29.49104 | -61.45729 | 34082 ft | 515 kts | 37° |
| 2026-05-06 17:02 | -29.46648 | -61.42743 | 34338 ft | 514 kts | 37° |
| 2026-05-06 17:02 | -29.44195 | -61.39760 | 34595 ft | 514 kts | 37° |
| 2026-05-06 17:02 | -29.41735 | -61.36772 | 34852 ft | 514 kts | 37° |
| 2026-05-06 17:02 | -29.39282 | -61.33794 | 35101 ft | 513 kts | 36° |
| 2026-05-06 17:03 | -29.36831 | -61.30822 | 35307 ft | 514 kts | 37° |
| 2026-05-06 17:03 | -29.34364 | -61.27833 | 35502 ft | 515 kts | 37° |
| 2026-05-06 17:03 | -29.31903 | -61.24854 | 35718 ft | 515 kts | 37° |
| 2026-05-06 17:04 | -29.27028 | -61.18941 | 35786 ft | 502 kts | 37° |
| 2026-05-06 17:04 | -29.22246 | -61.13154 | 35787 ft | 499 kts | 36° |
| 2026-05-06 17:05 | -29.17461 | -61.07396 | 35786 ft | 499 kts | 36° |
| 2026-05-06 17:05 | -29.12682 | -61.01649 | 35783 ft | 499 kts | 37° |
| 2026-05-06 17:06 | -29.07805 | -60.96026 | 35797 ft | 492 kts | 31° |
| 2026-05-06 17:06 | -29.02644 | -60.90888 | 35792 ft | 496 kts | 35° |
| 2026-05-06 17:06 | 30.37407 | -16.43669 | 37018 ft | 473 kts | 21° |
| 2026-05-06 17:07 | 30.40273 | -16.42192 | 38741 ft | 434 kts | 19° |
| 2026-05-06 17:07 | 30.42957 | -16.40890 | 40078 ft | 401 kts | 18° |
| 2026-05-06 17:07 | 30.45489 | -16.39799 | 40923 ft | 381 kts | 12° |
| 2026-05-06 17:07 | 30.48095 | -16.39179 | 40644 ft | 387 kts | 2° |
| 2026-05-06 17:08 | 30.50814 | -16.38970 | 40323 ft | 396 kts | 357° |
| 2026-05-06 17:08 | 30.53592 | -16.39180 | 40029 ft | 403 kts | 349° |
| 2026-05-06 17:08 | 30.56321 | -16.39915 | 39451 ft | 405 kts | 340° |
| 2026-05-06 17:08 | 30.58918 | -16.41205 | 38874 ft | 409 kts | 333° |
| 2026-05-06 17:09 | 30.61476 | -16.42715 | 38235 ft | 414 kts | 333° |
| 2026-05-06 17:09 | 30.64046 | -16.44270 | 37593 ft | 419 kts | 333° |
| 2026-05-06 17:09 | 30.66639 | -16.45843 | 36842 ft | 422 kts | 333° |
| 2026-05-06 17:09 | 30.69261 | -16.47433 | 36148 ft | 426 kts | 332° |
| 2026-05-06 17:10 | 30.71869 | -16.49015 | 35833 ft | 420 kts | 332° |
| 2026-05-06 17:10 | 30.74443 | -16.50576 | 35603 ft | 416 kts | 332° |
| 2026-05-06 17:10 | 30.76977 | -16.52114 | 35358 ft | 416 kts | 332° |
| 2026-05-06 17:10 | 30.79553 | -16.53678 | 35116 ft | 417 kts | 332° |
| 2026-05-06 17:11 | 30.82120 | -16.55237 | 34875 ft | 417 kts | 332° |
| 2026-05-06 17:11 | 30.84689 | -16.56799 | 34636 ft | 417 kts | 332° |
| 2026-05-06 17:11 | 30.87267 | -16.58367 | 34397 ft | 417 kts | 332° |
| 2026-05-06 17:11 | 30.89841 | -16.59933 | 34164 ft | 417 kts | 332° |
| 2026-05-06 17:12 | 30.92417 | -16.61502 | 33914 ft | 418 kts | 332° |
| 2026-05-06 17:12 | 30.94992 | -16.63070 | 33633 ft | 418 kts | 332° |
| 2026-05-06 17:12 | 30.97571 | -16.64643 | 33359 ft | 418 kts | 332° |
| 2026-05-06 17:12 | 31.00154 | -16.66218 | 33140 ft | 419 kts | 332° |
| 2026-05-06 17:13 | 31.02733 | -16.67793 | 32858 ft | 419 kts | 332° |
| 2026-05-06 17:13 | 31.05305 | -16.69363 | 32580 ft | 416 kts | 332° |
| 2026-05-06 17:13 | 31.07883 | -16.70940 | 32292 ft | 419 kts | 333° |
| 2026-05-06 17:13 | 31.10471 | -16.72522 | 32047 ft | 420 kts | 333° |
| 2026-05-06 17:14 | 31.13060 | -16.74106 | 31783 ft | 419 kts | 333° |
| 2026-05-06 17:14 | 31.15637 | -16.75684 | 31528 ft | 418 kts | 333° |
| 2026-05-06 17:14 | 31.18205 | -16.77257 | 31283 ft | 416 kts | 333° |
| 2026-05-06 17:14 | 31.20766 | -16.78827 | 31030 ft | 414 kts | 333° |
| 2026-05-06 17:15 | 31.23281 | -16.80370 | 30797 ft | 412 kts | 333° |
| 2026-05-06 17:15 | 31.25811 | -16.81923 | 30562 ft | 409 kts | 334° |
| 2026-05-06 17:15 | 31.28326 | -16.83468 | 30337 ft | 407 kts | 334° |
| 2026-05-06 17:15 | 31.30832 | -16.85008 | 30080 ft | 405 kts | 334° |
| 2026-05-06 17:16 | 31.33321 | -16.86538 | 29798 ft | 403 kts | 334° |
| 2026-05-06 17:16 | 31.35796 | -16.88060 | 29526 ft | 402 kts | 334° |
| 2026-05-06 17:16 | 31.38257 | -16.89576 | 29254 ft | 400 kts | 334° |
| 2026-05-06 17:16 | 31.40729 | -16.91098 | 28985 ft | 399 kts | 334° |
| 2026-05-06 17:17 | 31.43181 | -16.92610 | 28716 ft | 397 kts | 334° |
| 2026-05-06 17:17 | 31.45615 | -16.94110 | 28453 ft | 395 kts | 334° |
| 2026-05-06 17:17 | 31.48053 | -16.95615 | 28201 ft | 394 kts | 334° |
| 2026-05-06 17:17 | 31.50464 | -16.97104 | 27929 ft | 391 kts | 334° |
| 2026-05-06 17:18 | 31.52058 | -16.98088 | 27767 ft | 389 kts | 334° |
| 2026-05-06 17:18 | 31.54442 | -16.99562 | 27504 ft | 387 kts | 334° |
| 2026-05-06 17:18 | 31.57627 | -17.01532 | 27179 ft | 385 kts | 334° |
| 2026-05-06 17:18 | 31.59197 | -17.02503 | 27011 ft | 385 kts | 334° |
| 2026-05-06 17:19 | 31.61562 | -17.03967 | 26756 ft | 383 kts | 334° |
| 2026-05-06 17:19 | 31.63919 | -17.05427 | 26485 ft | 382 kts | 333° |
| 2026-05-06 17:19 | 31.66266 | -17.06882 | 26252 ft | 382 kts | 333° |
| 2026-05-06 17:19 | 31.68612 | -17.08337 | 26001 ft | 380 kts | 333° |
| 2026-05-06 17:20 | 31.70949 | -17.09787 | 25759 ft | 379 kts | 333° |
| 2026-05-06 17:20 | 31.73278 | -17.11233 | 25529 ft | 378 kts | 333° |
| 2026-05-06 17:20 | 31.75595 | -17.12673 | 25292 ft | 375 kts | 333° |
| 2026-05-06 17:20 | 31.77901 | -17.14106 | 25061 ft | 374 kts | 333° |
| 2026-05-06 17:21 | 31.80194 | -17.15532 | 24823 ft | 373 kts | 333° |
| 2026-05-06 17:21 | 31.82483 | -17.16957 | 24596 ft | 371 kts | 333° |
| 2026-05-06 17:21 | 31.84764 | -17.18377 | 24388 ft | 366 kts | 333° |
| 2026-05-06 17:21 | 31.86967 | -17.19751 | 24051 ft | 360 kts | 333° |
| 2026-05-06 17:22 | 31.89196 | -17.21140 | 23632 ft | 357 kts | 333° |
| 2026-05-06 17:22 | 31.91418 | -17.22418 | 23159 ft | 353 kts | 339° |
| 2026-05-06 17:22 | 31.93747 | -17.23129 | 22741 ft | 351 kts | 352° |
| 2026-05-06 17:22 | 31.96181 | -17.23067 | 22323 ft | 351 kts | 6° |
| 2026-05-06 17:23 | 31.98513 | -17.22203 | 21915 ft | 355 kts | 21° |
| 2026-05-06 17:23 | 32.00656 | -17.20722 | 21507 ft | 357 kts | 28° |
| 2026-05-06 17:23 | 32.02715 | -17.19106 | 21080 ft | 355 kts | 28° |
| 2026-05-06 17:23 | 32.04764 | -17.17486 | 20660 ft | 353 kts | 28° |
| 2026-05-06 17:24 | 32.06802 | -17.15882 | 20255 ft | 351 kts | 28° |
| 2026-05-06 17:24 | 32.08829 | -17.14293 | 19840 ft | 349 kts | 28° |